createdAt,value
2018-06-22T00:00:06.033Z,0
2018-06-22T00:01:06.050Z,0
2018-06-22T00:02:06.330Z,0
2018-06-22T00:03:21.007Z,0
2018-06-22T00:04:06.373Z,0
2018-06-22T00:05:20.792Z,0
2018-06-22T00:06:05.898Z,0
2018-06-22T00:07:05.919Z,0
2018-06-22T00:08:06.196Z,0
2018-06-22T00:09:21.144Z,0
2018-06-22T00:10:06.240Z,0
2018-06-22T00:11:20.921Z,0
2018-06-22T00:12:06.543Z,0
2018-06-22T00:13:06.045Z,0
2018-06-22T00:14:06.321Z,0
2018-06-22T00:15:06.346Z,0
2018-06-22T00:16:06.107Z,0
2018-06-22T00:17:21.303Z,0
2018-06-22T00:18:06.406Z,0
2018-06-22T00:19:21.345Z,0
2018-06-22T00:20:06.452Z,0
2018-06-22T00:21:06.468Z,0
2018-06-22T00:22:06.762Z,0
2018-06-22T00:23:06.513Z,0
2018-06-22T00:24:06.791Z,0
2018-06-22T00:25:21.472Z,0
2018-06-22T00:26:06.840Z,0
2018-06-22T00:27:06.595Z,0
2018-06-22T00:28:21.279Z,0
2018-06-22T00:29:06.639Z,0
2018-06-22T00:30:21.419Z,0
2018-06-22T00:32:06.964Z,0
2018-06-22T00:33:06.726Z,0
2018-06-22T00:34:06.753Z,0
2018-06-22T00:35:07.023Z,0
2018-06-22T00:36:06.785Z,0
2018-06-22T00:37:06.807Z,0
2018-06-22T00:38:07.085Z,0
2018-06-22T00:39:06.854Z,0
2018-06-22T00:40:07.189Z,0
2018-06-22T00:41:21.818Z,0
2018-06-22T00:42:06.921Z,0
2018-06-22T00:43:07.201Z,0
2018-06-22T00:44:07.210Z,0
2018-06-22T00:45:21.633Z,0
2018-06-22T00:46:07.017Z,0
2018-06-22T00:47:07.280Z,0
2018-06-22T00:48:07.322Z,0
2018-06-22T00:49:07.061Z,0
2018-06-22T00:50:07.079Z,0
2018-06-22T00:52:07.379Z,0
2018-06-22T00:53:07.402Z,0
2018-06-22T00:54:07.167Z,0
2018-06-22T00:55:07.183Z,0
2018-06-22T00:56:07.208Z,0
2018-06-22T00:57:22.148Z,0
2018-06-22T00:58:06.989Z,0
2018-06-22T00:59:07.535Z,0
2018-06-22T01:00:07.545Z,0
2018-06-22T01:02:07.329Z,0
2018-06-22T01:03:07.607Z,0
2018-06-22T01:04:07.634Z,0
2018-06-22T01:05:07.675Z,0
2018-06-22T01:06:07.674Z,0
2018-06-22T01:07:07.431Z,0
2018-06-22T01:08:07.457Z,0
2018-06-22T01:09:07.483Z,0
2018-06-22T01:10:07.755Z,0
2018-06-22T01:11:07.519Z,0
2018-06-22T01:12:21.944Z,0
2018-06-22T01:13:07.559Z,0
2018-06-22T01:14:07.835Z,0
2018-06-22T01:15:07.860Z,0
2018-06-22T01:16:07.891Z,0
2018-06-22T01:17:07.662Z,0
2018-06-22T01:18:07.406Z,0
2018-06-22T01:19:07.948Z,0
2018-06-22T01:20:22.624Z,0
2018-06-22T01:21:08.035Z,0
2018-06-22T01:22:08.067Z,0
2018-06-22T01:23:07.772Z,0
2018-06-22T01:24:07.791Z,0
2018-06-22T01:25:08.068Z,0
2018-06-22T01:26:08.094Z,0
2018-06-22T01:28:08.131Z,0
2018-06-22T01:29:08.149Z,0
2018-06-22T01:30:07.920Z,0
2018-06-22T01:31:07.678Z,0
2018-06-22T01:32:07.956Z,0
2018-06-22T01:33:07.976Z,0
2018-06-22T01:34:08.108Z,0
2018-06-22T01:35:08.282Z,0
2018-06-22T01:36:08.037Z,0
2018-06-22T01:37:08.065Z,0
2018-06-22T01:38:08.338Z,0
2018-06-22T01:39:07.845Z,0
2018-06-22T01:40:07.608Z,0
2018-06-22T01:41:08.404Z,0
2018-06-22T01:42:08.424Z,0
2018-06-22T01:43:07.927Z,0
2018-06-22T01:44:23.128Z,0
2018-06-22T01:45:08.487Z,0
2018-06-22T01:46:08.508Z,0
2018-06-22T01:47:08.538Z,0
2018-06-22T01:48:22.948Z,0
2018-06-22T01:49:08.410Z,4
2018-06-22T01:50:08.334Z,4
2018-06-22T01:51:08.350Z,4
2018-06-22T01:52:08.112Z,4
2018-06-22T01:53:08.393Z,0
2018-06-22T01:54:08.510Z,0
2018-06-22T01:55:08.441Z,4
2018-06-22T01:56:08.452Z,4
2018-06-22T01:57:23.397Z,4
2018-06-22T01:58:08.235Z,0
2018-06-22T01:59:08.521Z,4
2018-06-22T02:00:23.196Z,4
2018-06-22T02:01:23.219Z,4
2018-06-22T02:02:08.837Z,4
2018-06-22T02:03:08.861Z,8
2018-06-22T02:04:08.619Z,4
2018-06-22T02:05:08.899Z,8
2018-06-22T02:06:08.666Z,8
2018-06-22T02:07:08.728Z,8
2018-06-22T02:08:08.711Z,12
2018-06-22T02:09:23.639Z,12
2018-06-22T02:10:23.403Z,8
2018-06-22T02:11:08.503Z,12
2018-06-22T02:12:08.786Z,16
2018-06-22T02:13:08.557Z,16
2018-06-22T02:14:08.569Z,16
2018-06-22T02:15:09.112Z,16
2018-06-22T02:16:23.528Z,16
2018-06-22T02:17:08.890Z,20
2018-06-22T02:18:08.646Z,16
2018-06-22T02:19:08.937Z,16
2018-06-22T02:20:09.210Z,16
2018-06-22T02:21:08.980Z,20
2018-06-22T02:22:08.989Z,20
2018-06-22T02:23:09.010Z,20
2018-06-22T02:24:09.043Z,20
2018-06-22T02:25:24.071Z,20
2018-06-22T02:26:23.732Z,20
2018-06-22T02:27:23.758Z,20
2018-06-22T02:28:09.116Z,20
2018-06-22T02:29:09.133Z,24
2018-06-22T02:30:09.169Z,28
2018-06-22T02:31:09.183Z,32
2018-06-22T02:32:24.121Z,36
2018-06-22T02:33:09.235Z,36
2018-06-22T02:34:09.246Z,36
2018-06-22T02:35:09.525Z,44
2018-06-22T02:36:09.297Z,52
2018-06-22T02:37:09.313Z,56
2018-06-22T02:38:09.134Z,68
2018-06-22T02:39:09.344Z,76
2018-06-22T02:40:09.377Z,76
2018-06-22T02:41:09.384Z,80
2018-06-22T02:42:24.077Z,96
2018-06-22T02:43:09.425Z,108
2018-06-22T02:44:09.452Z,116
2018-06-22T02:45:09.471Z,132
2018-06-22T02:46:09.537Z,132
2018-06-22T02:47:24.429Z,128
2018-06-22T02:49:09.814Z,148
2018-06-22T02:50:09.587Z,144
2018-06-22T02:51:09.590Z,148
2018-06-22T02:53:09.633Z,152
2018-06-22T02:54:09.913Z,132
2018-06-22T02:55:10.015Z,108
2018-06-22T02:56:09.962Z,112
2018-06-22T02:57:09.988Z,116
2018-06-22T02:58:10.028Z,120
2018-06-22T02:59:09.507Z,136
2018-06-22T03:00:09.530Z,156
2018-06-22T03:01:10.065Z,152
2018-06-22T03:02:24.485Z,144
2018-06-22T03:03:09.842Z,164
2018-06-22T03:04:10.123Z,188
2018-06-22T03:05:09.636Z,188
2018-06-22T03:06:10.170Z,188
2018-06-22T03:07:10.191Z,172
2018-06-22T03:08:09.944Z,196
2018-06-22T03:09:09.975Z,208
2018-06-22T03:10:10.247Z,224
2018-06-22T03:12:24.945Z,212
2018-06-22T03:13:10.317Z,196
2018-06-22T03:14:10.342Z,200
2018-06-22T03:15:10.352Z,220
2018-06-22T03:16:10.369Z,236
2018-06-22T03:17:10.396Z,244
2018-06-22T03:18:10.157Z,256
2018-06-22T03:19:25.090Z,256
2018-06-22T03:20:25.111Z,284
2018-06-22T03:21:10.231Z,288
2018-06-22T03:22:10.236Z,300
2018-06-22T03:23:25.171Z,292
2018-06-22T03:24:10.018Z,268
2018-06-22T03:25:10.303Z,256
2018-06-22T03:26:10.081Z,268
2018-06-22T03:27:24.999Z,352
2018-06-22T03:28:10.618Z,412
2018-06-22T03:29:10.379Z,392
2018-06-22T03:30:10.469Z,400
2018-06-22T03:31:10.422Z,420
2018-06-22T03:32:10.948Z,372
2018-06-22T03:33:10.724Z,364
2018-06-22T03:34:10.483Z,416
2018-06-22T03:35:25.425Z,448
2018-06-22T03:36:10.802Z,420
2018-06-22T03:37:25.464Z,436
2018-06-22T03:38:10.826Z,464
2018-06-22T03:39:10.590Z,492
2018-06-22T03:40:10.884Z,492
2018-06-22T03:41:10.374Z,508
2018-06-22T03:42:10.397Z,556
2018-06-22T03:43:10.415Z,676
2018-06-22T03:44:10.957Z,692
2018-06-22T03:45:10.716Z,740
2018-06-22T03:46:10.749Z,624
2018-06-22T03:47:10.760Z,640
2018-06-22T03:48:10.774Z,708
2018-06-22T03:49:11.059Z,668
2018-06-22T03:50:11.075Z,676
2018-06-22T03:51:25.242Z,700
2018-06-22T03:52:10.599Z,660
2018-06-22T03:54:11.313Z,608
2018-06-22T03:55:11.188Z,620
2018-06-22T03:56:10.940Z,608
2018-06-22T03:57:11.324Z,600
2018-06-22T03:59:11.261Z,660
2018-06-22T04:00:11.287Z,696
2018-06-22T04:01:11.306Z,780
2018-06-22T04:02:11.069Z,872
2018-06-22T04:03:11.350Z,800
2018-06-22T04:04:10.601Z,812
2018-06-22T04:05:11.391Z,816
2018-06-22T04:06:11.154Z,864
2018-06-22T04:07:26.091Z,868
2018-06-22T04:08:11.627Z,856
2018-06-22T04:09:25.899Z,828
2018-06-22T04:10:11.596Z,816
2018-06-22T04:11:11.525Z,968
2018-06-22T04:13:11.297Z,932
2018-06-22T04:15:11.602Z,808
2018-06-22T04:16:26.037Z,756
2018-06-22T04:17:26.047Z,744
2018-06-22T04:18:11.172Z,776
2018-06-22T04:19:11.733Z,780
2018-06-22T04:20:11.705Z,908
2018-06-22T04:21:11.724Z,932
2018-06-22T04:22:26.149Z,916
2018-06-22T04:23:11.763Z,892
2018-06-22T04:24:11.527Z,960
2018-06-22T04:25:11.552Z,1152
2018-06-22T04:26:11.841Z,1228
2018-06-22T04:27:11.593Z,1208
2018-06-22T04:29:11.639Z,1120
2018-06-22T04:30:11.965Z,1044
2018-06-22T04:31:12.033Z,940
2018-06-22T04:33:11.718Z,916
2018-06-22T04:34:11.741Z,912
2018-06-22T04:35:12.019Z,908
2018-06-22T04:36:12.042Z,972
2018-06-22T04:37:12.058Z,952
2018-06-22T04:38:11.308Z,1000
2018-06-22T04:39:26.508Z,1036
2018-06-22T04:40:11.871Z,1004
2018-06-22T04:41:12.249Z,1116
2018-06-22T04:42:26.567Z,1300
2018-06-22T04:43:26.334Z,1496
2018-06-22T04:44:12.217Z,1696
2018-06-22T04:45:12.230Z,1380
2018-06-22T04:46:26.921Z,1308
2018-06-22T04:47:12.112Z,1424
2018-06-22T04:48:12.036Z,1732
2018-06-22T04:49:12.065Z,1660
2018-06-22T04:50:12.340Z,1708
2018-06-22T04:51:12.358Z,1684
2018-06-22T04:52:12.379Z,1768
2018-06-22T04:53:12.159Z,1892
2018-06-22T04:54:27.082Z,2064
2018-06-22T04:55:12.440Z,2552
2018-06-22T04:56:12.715Z,2624
2018-06-22T04:57:11.969Z,2888
2018-06-22T04:58:27.172Z,3016
2018-06-22T04:59:12.266Z,2548
2018-06-22T05:00:27.213Z,2160
2018-06-22T05:01:12.563Z,2152
2018-06-22T05:02:12.587Z,2236
2018-06-22T05:03:27.272Z,2512
2018-06-22T05:04:12.378Z,2436
2018-06-22T05:05:12.658Z,2424
2018-06-22T05:06:12.675Z,2352
2018-06-22T05:07:12.704Z,2512
2018-06-22T05:08:12.455Z,2708
2018-06-22T05:09:12.742Z,2452
2018-06-22T05:11:12.782Z,2104
2018-06-22T05:12:12.802Z,2316
2018-06-22T05:13:12.569Z,1908
2018-06-22T05:14:12.585Z,1996
2018-06-22T05:15:27.527Z,2072
2018-06-22T05:16:12.886Z,1952
2018-06-22T05:17:12.650Z,1660
2018-06-22T05:18:12.937Z,1336
2018-06-22T05:19:12.952Z,1292
2018-06-22T05:20:12.987Z,1484
2018-06-22T05:21:12.750Z,1476
2018-06-22T05:22:13.016Z,1852
2018-06-22T05:23:12.778Z,2260
2018-06-22T05:24:13.060Z,2308
2018-06-22T05:25:12.848Z,2232
2018-06-22T05:26:27.761Z,2196
2018-06-22T05:27:12.620Z,2256
2018-06-22T05:28:13.150Z,1896
2018-06-22T05:29:27.853Z,1940
2018-06-22T05:30:13.285Z,1932
2018-06-22T05:31:13.207Z,1992
2018-06-22T05:33:27.935Z,2096
2018-06-22T05:34:13.280Z,2232
2018-06-22T05:35:27.693Z,2588
2018-06-22T05:37:13.080Z,2924
2018-06-22T05:38:12.839Z,3008
2018-06-22T05:39:13.375Z,3016
2018-06-22T05:40:13.144Z,3144
2018-06-22T05:41:13.162Z,3860
2018-06-22T05:42:27.843Z,4996
2018-06-22T05:43:13.460Z,5172
2018-06-22T05:44:13.481Z,4876
2018-06-22T05:45:28.196Z,4208
2018-06-22T05:46:13.015Z,4808
2018-06-22T05:47:13.293Z,4820
2018-06-22T05:48:13.581Z,4164
2018-06-22T05:49:13.392Z,4488
2018-06-22T05:50:13.356Z,5888
2018-06-22T05:51:13.380Z,6472
2018-06-22T05:52:13.656Z,5828
2018-06-22T05:53:28.086Z,7132
2018-06-22T05:54:13.698Z,6852
2018-06-22T05:55:13.465Z,7384
2018-06-22T05:56:13.756Z,6624
2018-06-22T05:57:28.421Z,5376
2018-06-22T05:58:13.529Z,4916
2018-06-22T05:59:13.296Z,6388
2018-06-22T06:00:13.574Z,7400
2018-06-22T06:01:13.852Z,10024
2018-06-22T06:02:13.873Z,16796
2018-06-22T06:03:13.894Z,9440
2018-06-22T06:04:13.664Z,7676
2018-06-22T06:06:13.705Z,10156
2018-06-22T06:07:13.982Z,8508
2018-06-22T06:08:14.109Z,10228
2018-06-22T06:09:13.771Z,9428
2018-06-22T06:10:14.052Z,7576
2018-06-22T06:11:14.341Z,7960
2018-06-22T06:12:28.820Z,9532
2018-06-22T06:13:13.861Z,9476
2018-06-22T06:15:13.902Z,9684
2018-06-22T06:16:14.291Z,8216
2018-06-22T06:17:13.949Z,6856
2018-06-22T06:18:13.712Z,6596
2018-06-22T06:19:14.250Z,5804
2018-06-22T06:20:14.503Z,5488
2018-06-22T06:21:28.955Z,4608
2018-06-22T06:22:14.063Z,4732
2018-06-22T06:23:14.341Z,4292
2018-06-22T06:24:14.110Z,3380
2018-06-22T06:25:14.151Z,2908
2018-06-22T06:26:14.407Z,3132
2018-06-22T06:27:14.581Z,3592
2018-06-22T06:28:13.939Z,3844
2018-06-22T06:29:29.139Z,4936
2018-06-22T06:30:14.546Z,5200
2018-06-22T06:31:14.262Z,4096
2018-06-22T06:32:14.544Z,3640
2018-06-22T06:33:14.311Z,4052
2018-06-22T06:34:28.993Z,4024
2018-06-22T06:35:14.611Z,3740
2018-06-22T06:36:14.631Z,3832
2018-06-22T06:37:14.655Z,4816
2018-06-22T06:38:29.334Z,5068
2018-06-22T06:39:14.697Z,4552
2018-06-22T06:40:14.720Z,4428
2018-06-22T06:41:14.227Z,5476
2018-06-22T06:42:14.769Z,5928
2018-06-22T06:43:29.451Z,6448
2018-06-22T06:44:14.549Z,6496
2018-06-22T06:45:29.497Z,6188
2018-06-22T06:46:14.336Z,5672
2018-06-22T06:47:14.941Z,5024
2018-06-22T06:48:14.897Z,4732
2018-06-22T06:49:14.924Z,5656
2018-06-22T06:50:14.942Z,7088
2018-06-22T06:51:14.716Z,6136
2018-06-22T06:52:14.986Z,6476
2018-06-22T06:53:15.012Z,7540
2018-06-22T06:54:29.692Z,7624
2018-06-22T06:55:15.062Z,7608
2018-06-22T06:56:15.200Z,6368
2018-06-22T06:57:15.099Z,6768
2018-06-22T06:58:14.863Z,7012
2018-06-22T06:59:14.887Z,7736
2018-06-22T07:00:15.166Z,10132
2018-06-22T07:01:29.851Z,9860
2018-06-22T07:02:14.954Z,9276
2018-06-22T07:03:15.244Z,8272
2018-06-22T07:04:15.005Z,7340
2018-06-22T07:05:15.289Z,7496
2018-06-22T07:06:15.044Z,6124
2018-06-22T07:07:15.073Z,4644
2018-06-22T07:08:15.350Z,3856
2018-06-22T07:09:15.113Z,3524
2018-06-22T07:10:30.061Z,3712
2018-06-22T07:11:15.417Z,3680
2018-06-22T07:12:15.181Z,3292
2018-06-22T07:13:30.128Z,3772
2018-06-22T07:14:30.149Z,4132
2018-06-22T07:15:15.249Z,4076
2018-06-22T07:16:15.269Z,3956
2018-06-22T07:17:30.212Z,3484
2018-06-22T07:19:15.598Z,3496
2018-06-22T07:20:15.359Z,3448
2018-06-22T07:21:15.642Z,3744
2018-06-22T07:22:15.405Z,3896
2018-06-22T07:23:15.686Z,4064
2018-06-22T07:24:15.713Z,4124
2018-06-22T07:25:15.832Z,4160
2018-06-22T07:26:15.755Z,4216
2018-06-22T07:27:15.776Z,4688
2018-06-22T07:28:15.810Z,5100
2018-06-22T07:29:15.822Z,5536
2018-06-22T07:30:15.328Z,5676
2018-06-22T07:31:15.354Z,4992
2018-06-22T07:32:30.294Z,5588
2018-06-22T07:33:30.317Z,5788
2018-06-22T07:34:15.935Z,6456
2018-06-22T07:35:15.696Z,7472
2018-06-22T07:36:15.989Z,8164
2018-06-22T07:37:30.147Z,7680
2018-06-22T07:38:15.769Z,7608
2018-06-22T07:39:16.050Z,8384
2018-06-22T07:40:30.731Z,14120
2018-06-22T07:41:30.496Z,14312
2018-06-22T07:42:16.127Z,14152
2018-06-22T07:43:16.138Z,12280
2018-06-22T07:44:15.952Z,10036
2018-06-22T07:45:16.182Z,9948
2018-06-22T07:46:16.208Z,9628
2018-06-22T07:48:16.256Z,7708
2018-06-22T07:49:30.681Z,7528
2018-06-22T07:50:16.040Z,7664
2018-06-22T07:51:16.320Z,7208
2018-06-22T07:52:16.193Z,6368
2018-06-22T07:53:16.374Z,5624
2018-06-22T07:54:16.132Z,5132
2018-06-22T07:55:16.329Z,5192
2018-06-22T07:56:16.437Z,5456
2018-06-22T07:57:16.536Z,5044
2018-06-22T07:58:31.150Z,4404
2018-06-22T07:59:16.509Z,4440
2018-06-22T08:00:16.528Z,4732
2018-06-22T08:01:16.561Z,4556
2018-06-22T08:02:16.315Z,4268
2018-06-22T08:04:45.943Z,3532
2018-06-22T08:05:16.649Z,3616
2018-06-22T08:06:16.764Z,3324
2018-06-22T08:08:16.711Z,2720
2018-06-22T08:09:16.474Z,2620
2018-06-22T08:10:16.756Z,2548
2018-06-22T08:11:16.787Z,2476
2018-06-22T08:12:16.545Z,2196
2018-06-22T08:13:16.925Z,2480
2018-06-22T08:14:16.595Z,2692
2018-06-22T08:15:16.871Z,2728
2018-06-22T08:16:16.948Z,3012
2018-06-22T08:17:16.917Z,3212
2018-06-22T08:18:16.692Z,3236
2018-06-22T08:19:16.963Z,3584
2018-06-22T08:20:46.307Z,3636
2018-06-22T08:21:17.015Z,3568
2018-06-22T08:22:16.772Z,3264
2018-06-22T08:23:17.050Z,3036
2018-06-22T08:24:16.917Z,2740
2018-06-22T08:25:17.109Z,2524
2018-06-22T08:26:16.867Z,2416
2018-06-22T08:27:17.148Z,2524
2018-06-22T08:28:16.903Z,2764
2018-06-22T08:29:31.851Z,3400
2018-06-22T08:30:17.215Z,3956
2018-06-22T08:31:16.715Z,4280
2018-06-22T08:32:17.255Z,4456
2018-06-22T08:33:17.278Z,4336
2018-06-22T08:34:17.046Z,4084
2018-06-22T08:35:17.324Z,3756
2018-06-22T08:36:31.795Z,3496
2018-06-22T08:37:17.376Z,3476
2018-06-22T08:38:17.141Z,3568
2018-06-22T08:39:17.152Z,3816
2018-06-22T08:40:17.436Z,4004
2018-06-22T08:41:17.454Z,4040
2018-06-22T08:42:31.924Z,3980
2018-06-22T08:43:17.250Z,4124
2018-06-22T08:44:17.269Z,4392
2018-06-22T08:45:17.570Z,4908
2018-06-22T08:46:17.687Z,5792
2018-06-22T08:47:17.341Z,6880
2018-06-22T08:48:17.614Z,8148
2018-06-22T08:49:17.637Z,9760
2018-06-22T08:50:17.664Z,11312
2018-06-22T08:51:17.678Z,21024
2018-06-22T08:52:47.024Z,16176
2018-06-22T08:53:17.463Z,15108
2018-06-22T08:54:17.491Z,13952
2018-06-22T08:56:32.452Z,16668
2018-06-22T08:57:17.864Z,18688
2018-06-22T08:58:17.834Z,21312
2018-06-22T08:59:17.869Z,32800
2018-06-22T09:00:17.890Z,32128
2018-06-22T09:01:20.033Z,23584
2018-06-22T09:02:32.593Z,23424
2018-06-22T09:03:17.964Z,23072
2018-06-22T09:04:18.090Z,20128
2018-06-22T09:05:18.031Z,17088
2018-06-22T09:08:17.979Z,15236
2018-06-22T09:09:17.944Z,13508
2018-06-22T09:10:17.875Z,13052
2018-06-22T09:11:17.901Z,13656
2018-06-22T09:12:17.917Z,14036
2018-06-22T09:13:18.199Z,14204
2018-06-22T09:14:18.245Z,14676
2018-06-22T09:15:17.999Z,16600
2018-06-22T09:16:32.939Z,26144
2018-06-22T09:17:18.300Z,26144
2018-06-22T09:18:32.734Z,23072
2018-06-22T09:19:18.352Z,20096
2018-06-22T09:20:18.472Z,20640
2018-06-22T09:21:18.412Z,18144
2018-06-22T09:22:18.166Z,21472
2018-06-22T09:23:18.450Z,21440
2018-06-22T09:24:18.476Z,20384
2018-06-22T09:25:18.613Z,19552
2018-06-22T09:26:18.526Z,19296
2018-06-22T09:27:18.546Z,14512
2018-06-22T09:28:18.575Z,20544
2018-06-22T09:29:18.606Z,20000
2018-06-22T09:30:18.620Z,19744
2018-06-22T09:31:18.772Z,20256
2018-06-22T09:32:33.338Z,20960
2018-06-22T09:33:18.701Z,11540
2018-06-22T09:34:18.834Z,20768
2018-06-22T09:35:18.760Z,12444
2018-06-22T09:36:18.267Z,12588
2018-06-22T09:37:18.806Z,22912
2018-06-22T09:38:18.573Z,13560
2018-06-22T09:39:33.265Z,12432
2018-06-22T09:40:18.627Z,11252
2018-06-22T09:41:18.910Z,9652
2018-06-22T09:42:18.420Z,7360
2018-06-22T09:43:18.717Z,5656
2018-06-22T09:44:18.747Z,4552
2018-06-22T09:45:19.069Z,3632
2018-06-22T09:46:33.446Z,2968
2018-06-22T09:47:19.171Z,2672
2018-06-22T09:48:33.548Z,2488
2018-06-22T09:49:19.120Z,2660
2018-06-22T09:50:18.884Z,3044
2018-06-22T09:51:33.929Z,3536
2018-06-22T09:52:18.936Z,3728
2018-06-22T09:53:19.416Z,3900
2018-06-22T09:54:19.246Z,4196
2018-06-22T09:55:48.592Z,4588
2018-06-22T09:56:19.294Z,4728
2018-06-22T09:57:19.321Z,5012
2018-06-22T09:58:19.444Z,5572
2018-06-22T09:59:19.378Z,6824
2018-06-22T10:00:33.794Z,8388
2018-06-22T10:01:19.158Z,9436
2018-06-22T10:02:19.537Z,10100
2018-06-22T10:03:19.464Z,10536
2018-06-22T10:04:19.487Z,17920
2018-06-22T10:05:19.255Z,19200
2018-06-22T10:06:19.285Z,19552
2018-06-22T10:07:19.567Z,18272
2018-06-22T10:08:19.807Z,17504
2018-06-22T10:09:19.366Z,17536
2018-06-22T10:10:19.679Z,17080
2018-06-22T10:11:34.102Z,14656
2018-06-22T10:12:19.690Z,9908
2018-06-22T10:13:19.706Z,10576
2018-06-22T10:14:19.487Z,12488
2018-06-22T10:15:19.768Z,17440
2018-06-22T10:16:19.525Z,16872
2018-06-22T10:17:19.809Z,16828
2018-06-22T10:18:19.838Z,16860
2018-06-22T10:19:19.611Z,20640
2018-06-22T10:20:19.628Z,21152
2018-06-22T10:22:19.939Z,18624
2018-06-22T10:23:19.700Z,15392
2018-06-22T10:24:19.998Z,14980
2018-06-22T10:25:19.763Z,13696
2018-06-22T10:26:19.521Z,12860
2018-06-22T10:27:34.731Z,10924
2018-06-22T10:28:34.750Z,9672
2018-06-22T10:29:20.114Z,8580
2018-06-22T10:30:20.139Z,7740
2018-06-22T10:31:20.163Z,7900
2018-06-22T10:33:20.221Z,10156
2018-06-22T10:34:19.987Z,11784
2018-06-22T10:35:20.006Z,13040
2018-06-22T10:36:20.300Z,13756
2018-06-22T10:37:20.058Z,13916
2018-06-22T10:38:20.086Z,13692
2018-06-22T10:39:20.675Z,13716
2018-06-22T10:40:20.390Z,16960
2018-06-22T10:41:20.423Z,16864
2018-06-22T10:42:35.102Z,13736
2018-06-22T10:43:20.463Z,13404
2018-06-22T10:44:20.255Z,12812
2018-06-22T10:46:20.396Z,11364
2018-06-22T10:47:20.310Z,10776
2018-06-22T10:48:20.604Z,10576
2018-06-22T10:49:20.617Z,10796
2018-06-22T10:50:20.787Z,11572
2018-06-22T10:51:20.671Z,14032
2018-06-22T10:52:35.228Z,18784
2018-06-22T10:53:20.727Z,19392
2018-06-22T10:54:20.753Z,20288
2018-06-22T10:55:20.766Z,18848
2018-06-22T10:56:20.794Z,17376
2018-06-22T10:57:35.487Z,19360
2018-06-22T10:58:20.850Z,17696
2018-06-22T10:59:20.869Z,15016
2018-06-22T11:00:35.556Z,14480
2018-06-22T11:01:20.926Z,14364
2018-06-22T11:02:20.440Z,14956
2018-06-22T11:03:20.969Z,18176
2018-06-22T11:06:21.046Z,17824
2018-06-22T11:07:21.079Z,16816
2018-06-22T11:08:21.093Z,16060
2018-06-22T11:09:21.122Z,15280
2018-06-22T11:10:21.144Z,14560
2018-06-22T11:11:20.915Z,13948
2018-06-22T11:12:35.605Z,13216
2018-06-22T11:13:20.959Z,12836
2018-06-22T11:14:35.914Z,12372
2018-06-22T11:15:20.505Z,12200
2018-06-22T11:16:35.966Z,11884
2018-06-22T11:17:21.257Z,11696
2018-06-22T11:18:21.520Z,11472
2018-06-22T11:19:21.116Z,11216
2018-06-22T11:20:21.146Z,10928
2018-06-22T11:21:21.300Z,10772
2018-06-22T11:22:21.461Z,10684
2018-06-22T11:23:21.217Z,10572
2018-06-22T11:24:21.504Z,10472
2018-06-22T11:26:21.296Z,10576
2018-06-22T11:27:21.706Z,10700
2018-06-22T11:28:21.605Z,7048
2018-06-22T11:29:21.627Z,7068
2018-06-22T11:30:36.055Z,7484
2018-06-22T11:31:21.166Z,8324
2018-06-22T11:33:36.388Z,10248
2018-06-22T11:34:21.762Z,10440
2018-06-22T11:35:21.777Z,10252
2018-06-22T11:36:21.622Z,9704
2018-06-22T11:38:21.342Z,11292
2018-06-22T11:39:21.623Z,11696
2018-06-22T11:40:36.051Z,11240
2018-06-22T11:41:22.057Z,11720
2018-06-22T11:42:21.956Z,12616
2018-06-22T11:43:36.646Z,13024
2018-06-22T11:44:22.011Z,13336
2018-06-22T11:45:22.039Z,16960
2018-06-22T11:46:36.717Z,12624
2018-06-22T11:47:36.745Z,12256
2018-06-22T11:48:36.512Z,13332
2018-06-22T11:49:22.132Z,12336
2018-06-22T11:50:21.901Z,11440
2018-06-22T11:51:22.301Z,10760
2018-06-22T11:52:22.316Z,10140
2018-06-22T11:53:21.976Z,9884
2018-06-22T11:55:22.285Z,9396
2018-06-22T11:56:36.976Z,6828
2018-06-22T11:57:22.347Z,9012
2018-06-22T11:58:22.364Z,9508
2018-06-22T11:59:22.127Z,8504
2018-06-22T12:00:22.413Z,8876
2018-06-22T12:01:22.182Z,10128
2018-06-22T12:02:37.190Z,9128
2018-06-22T12:03:22.490Z,8744
2018-06-22T12:04:21.999Z,8628
2018-06-22T12:05:22.282Z,8580
2018-06-22T12:06:22.564Z,8580
2018-06-22T12:08:22.612Z,6476
2018-06-22T12:09:22.637Z,7860
2018-06-22T12:10:22.660Z,11064
2018-06-22T12:11:22.872Z,11600
2018-06-22T12:12:22.454Z,11908
2018-06-22T12:13:22.737Z,11208
2018-06-22T12:14:22.512Z,10076
2018-06-22T12:15:22.794Z,9404
2018-06-22T12:16:22.816Z,9064
2018-06-22T12:17:37.247Z,8696
2018-06-22T12:18:37.272Z,8624
2018-06-22T12:19:23.558Z,8552
2018-06-22T12:20:22.922Z,8384
2018-06-22T12:21:22.948Z,8272
2018-06-22T12:22:22.977Z,8248
2018-06-22T12:23:23.143Z,8200
2018-06-22T12:24:23.019Z,8220
2018-06-22T12:25:37.812Z,8312
2018-06-22T12:26:37.735Z,8352
2018-06-22T12:27:23.347Z,8428
2018-06-22T12:28:22.864Z,8524
2018-06-22T12:29:23.146Z,8676
2018-06-22T12:30:23.171Z,8920
2018-06-22T12:31:23.196Z,9160
2018-06-22T12:32:37.885Z,9276
2018-06-22T12:33:22.991Z,9568
2018-06-22T12:34:23.274Z,10180
2018-06-22T12:35:23.302Z,8020
2018-06-22T12:36:23.326Z,12124
2018-06-22T12:37:23.092Z,12436
2018-06-22T12:38:23.376Z,12668
2018-06-22T12:39:23.405Z,12540
2018-06-22T12:40:23.427Z,12512
2018-06-22T12:41:23.450Z,12616
2018-06-22T12:42:23.218Z,9996
2018-06-22T12:43:23.504Z,12840
2018-06-22T12:44:38.196Z,11632
2018-06-22T12:45:23.048Z,9548
2018-06-22T12:46:38.349Z,12752
2018-06-22T12:47:23.721Z,10268
2018-06-22T12:48:23.644Z,12628
2018-06-22T12:49:38.319Z,12972
2018-06-22T12:50:23.795Z,13036
2018-06-22T12:51:23.709Z,11024
2018-06-22T12:52:23.742Z,14040
2018-06-22T12:53:23.758Z,13420
2018-06-22T12:54:23.644Z,10656
2018-06-22T12:55:23.823Z,11044
2018-06-22T12:56:38.501Z,11248
2018-06-22T12:57:23.621Z,10572
2018-06-22T12:58:23.636Z,9144
2018-06-22T12:59:23.916Z,7936
2018-06-22T13:00:23.948Z,7100
2018-06-22T13:01:23.979Z,6472
2018-06-22T13:02:24.003Z,6116
2018-06-22T13:03:24.017Z,5872
2018-06-22T13:04:24.042Z,5628
2018-06-22T13:05:38.730Z,5372
2018-06-22T13:07:24.131Z,5760
2018-06-22T13:08:24.155Z,5916
2018-06-22T13:09:24.379Z,6220
2018-06-22T13:10:24.202Z,5828
2018-06-22T13:11:23.970Z,5732
2018-06-22T13:12:24.374Z,6804
2018-06-22T13:13:38.934Z,5928
2018-06-22T13:14:24.038Z,6080
2018-06-22T13:15:24.066Z,6768
2018-06-22T13:16:24.090Z,6664
2018-06-22T13:17:24.387Z,9772
2018-06-22T13:18:24.396Z,7236
2018-06-22T13:19:24.171Z,9108
2018-06-22T13:20:39.127Z,9396
2018-06-22T13:21:53.797Z,9392
2018-06-22T13:22:39.160Z,9408
2018-06-22T13:24:38.951Z,9132
2018-06-22T13:25:24.057Z,8696
2018-06-22T13:26:24.351Z,9496
2018-06-22T13:27:24.113Z,7032
2018-06-22T13:28:24.392Z,7208
2018-06-22T13:29:24.695Z,7428
2018-06-22T13:30:24.441Z,7524
2018-06-22T13:31:39.127Z,7088
2018-06-22T13:32:24.749Z,7064
2018-06-22T13:33:24.788Z,7432
2018-06-22T13:34:24.811Z,8364
2018-06-22T13:35:24.826Z,8472
2018-06-22T13:36:24.596Z,8656
2018-06-22T13:37:54.200Z,11368
2018-06-22T13:38:39.562Z,10356
2018-06-22T13:39:39.586Z,7520
2018-06-22T13:40:24.954Z,7116
2018-06-22T13:41:24.978Z,6804
2018-06-22T13:42:25.014Z,6572
2018-06-22T13:43:24.510Z,6600
2018-06-22T13:44:25.054Z,7152
2018-06-22T13:45:25.078Z,8668
2018-06-22T13:46:25.104Z,8676
2018-06-22T13:47:24.874Z,8428
2018-06-22T13:48:25.153Z,5732
2018-06-22T13:49:25.183Z,8128
2018-06-22T13:50:24.956Z,8056
2018-06-22T13:51:24.971Z,7984
2018-06-22T13:53:25.283Z,7836
2018-06-22T13:54:39.965Z,8716
2018-06-22T13:55:25.337Z,8928
2018-06-22T13:56:40.062Z,9276
2018-06-22T13:57:25.388Z,9488
2018-06-22T13:58:25.413Z,9600
2018-06-22T13:59:25.179Z,6600
2018-06-22T14:00:25.208Z,9528
2018-06-22T14:01:24.982Z,9420
2018-06-22T14:02:40.174Z,9400
2018-06-22T14:03:25.277Z,9436
2018-06-22T14:04:25.564Z,9324
2018-06-22T14:05:25.580Z,9120
2018-06-22T14:06:25.608Z,9008
2018-06-22T14:07:25.376Z,8888
2018-06-22T14:08:25.409Z,8716